createdAt,value
2022-11-15T00:00:07.777Z,5.59
2022-11-15T00:01:08.179Z,5.64
2022-11-15T00:02:08.617Z,5.69
2022-11-15T00:03:08.828Z,5.71
2022-11-15T00:04:09.179Z,5.73
2022-11-15T00:05:09.510Z,5.80
2022-11-15T00:06:09.885Z,5.83
2022-11-15T00:07:14.859Z,5.82
2022-11-15T00:08:10.598Z,5.83
2022-11-15T00:09:10.885Z,5.84
2022-11-15T00:10:11.237Z,5.86
2022-11-15T00:11:11.606Z,5.86
2022-11-15T00:12:11.948Z,5.90
2022-11-15T00:13:12.300Z,5.91
2022-11-15T00:14:12.639Z,5.93
2022-11-15T00:15:12.989Z,5.99
2022-11-15T00:16:13.368Z,6.04
2022-11-15T00:17:13.673Z,6.05
2022-11-15T00:18:14.020Z,6.07
2022-11-15T00:19:14.380Z,6.07
2022-11-15T00:20:14.735Z,6.08
2022-11-15T00:21:15.089Z,6.08
2022-11-15T00:22:15.433Z,6.12
2022-11-15T00:23:15.778Z,6.19
2022-11-15T00:24:16.130Z,6.26
2022-11-15T00:25:16.483Z,6.35
2022-11-15T00:26:16.861Z,6.44
2022-11-15T00:27:17.209Z,6.45
2022-11-15T00:28:17.552Z,6.48
2022-11-15T00:29:17.911Z,6.54
2022-11-15T00:30:18.255Z,6.52
2022-11-15T00:31:18.617Z,6.57
2022-11-15T00:32:18.968Z,6.63
2022-11-15T00:33:19.305Z,6.67
2022-11-15T00:34:19.647Z,6.75
2022-11-15T00:35:20.002Z,6.87
2022-11-15T00:36:20.365Z,6.92
2022-11-15T00:37:20.708Z,6.96
2022-11-15T00:38:21.083Z,7.05
2022-11-15T00:39:21.412Z,7.07
2022-11-15T00:40:21.753Z,7.13
2022-11-15T00:41:22.134Z,7.23
2022-11-15T00:42:22.437Z,7.29
2022-11-15T00:43:22.793Z,7.31
2022-11-15T00:44:23.138Z,7.36
2022-11-15T00:45:23.483Z,7.40
2022-11-15T00:46:23.868Z,7.43
2022-11-15T00:47:24.146Z,7.43
2022-11-15T00:48:24.616Z,7.47
2022-11-15T00:49:24.849Z,7.43
2022-11-15T00:50:25.198Z,7.47
2022-11-15T00:51:25.559Z,7.43
2022-11-15T00:52:25.901Z,7.43
2022-11-15T00:53:26.244Z,7.48
2022-11-15T00:54:26.628Z,7.51
2022-11-15T00:55:26.925Z,7.48
2022-11-15T00:56:27.354Z,7.53
2022-11-15T00:57:27.622Z,7.50
2022-11-15T00:58:27.965Z,7.48
2022-11-15T00:59:28.317Z,7.47
2022-11-15T01:00:28.854Z,7.43
2022-11-15T01:01:29.136Z,7.50
2022-11-15T01:02:29.389Z,7.57
2022-11-15T01:03:30.091Z,7.58
2022-11-15T01:04:30.126Z,7.58
2022-11-15T01:05:30.440Z,7.58
2022-11-15T01:06:30.824Z,7.61
2022-11-15T01:07:31.224Z,7.58
2022-11-15T01:08:31.494Z,7.58
2022-11-15T01:09:31.840Z,7.56
2022-11-15T01:10:32.188Z,7.56
2022-11-15T01:11:32.557Z,7.51
2022-11-15T01:12:32.880Z,7.50
2022-11-15T01:13:33.538Z,7.51
2022-11-15T01:14:33.589Z,7.53
2022-11-15T01:15:33.961Z,7.54
2022-11-15T01:16:34.318Z,7.53
2022-11-15T01:17:34.669Z,7.53
2022-11-15T01:18:35.009Z,7.50
2022-11-15T01:19:35.351Z,7.50
2022-11-15T01:20:35.700Z,7.45
2022-11-15T01:21:36.051Z,7.45
2022-11-15T01:22:36.394Z,7.43
2022-11-15T01:23:36.768Z,7.45
2022-11-15T01:24:37.099Z,7.43
2022-11-15T01:25:37.456Z,7.40
2022-11-15T01:26:37.822Z,7.40
2022-11-15T01:27:38.160Z,7.39
2022-11-15T01:28:38.506Z,7.38
2022-11-15T01:29:38.851Z,7.38
2022-11-15T01:30:39.193Z,7.36
2022-11-15T01:31:39.566Z,7.42
2022-11-15T01:32:39.899Z,7.42
2022-11-15T01:33:40.264Z,7.40
2022-11-15T01:34:40.609Z,7.39
2022-11-15T01:35:40.960Z,7.38
2022-11-15T01:36:41.320Z,7.36
2022-11-15T01:37:41.690Z,7.36
2022-11-15T01:38:42.030Z,7.33
2022-11-15T01:39:42.359Z,7.31
2022-11-15T01:40:42.695Z,7.25
2022-11-15T01:41:43.064Z,7.20
2022-11-15T01:42:43.418Z,7.20
2022-11-15T01:43:43.764Z,7.21
2022-11-15T01:44:44.122Z,7.18
2022-11-15T01:45:44.476Z,7.18
2022-11-15T01:46:44.846Z,7.18
2022-11-15T01:47:45.190Z,7.17
2022-11-15T01:48:45.547Z,7.15
2022-11-15T01:49:45.890Z,7.13
2022-11-15T01:50:46.240Z,7.10
2022-11-15T01:51:46.613Z,7.10
2022-11-15T01:52:46.954Z,7.10
2022-11-15T01:53:47.299Z,7.06
2022-11-15T01:54:47.654Z,7.07
2022-11-15T01:55:48.011Z,7.11
2022-11-15T01:56:48.384Z,7.14
2022-11-15T01:57:48.711Z,7.15
2022-11-15T01:58:49.096Z,7.13
2022-11-15T01:59:49.416Z,7.11
2022-11-15T02:00:49.774Z,7.06
2022-11-15T02:01:50.169Z,7.05
2022-11-15T02:02:50.500Z,7.00
2022-11-15T02:03:50.826Z,7.02
2022-11-15T02:04:51.171Z,7.02
2022-11-15T02:05:51.517Z,6.97
2022-11-15T02:06:51.961Z,6.96
2022-11-15T02:07:52.246Z,6.96
2022-11-15T02:08:52.604Z,6.95
2022-11-15T02:09:52.965Z,6.96
2022-11-15T02:10:53.294Z,6.97
2022-11-15T02:11:53.649Z,7.00
2022-11-15T02:12:53.986Z,6.97
2022-11-15T02:13:54.345Z,6.99
2022-11-15T02:14:54.687Z,6.97
2022-11-15T02:15:59.041Z,6.96
2022-11-15T02:16:55.410Z,6.96
2022-11-15T02:17:55.784Z,6.93
2022-11-15T02:18:56.107Z,6.92
2022-11-15T02:19:56.463Z,6.93
2022-11-15T02:20:56.898Z,6.89
2022-11-15T02:21:57.181Z,6.93
2022-11-15T02:22:57.533Z,6.89
2022-11-15T02:23:57.881Z,6.88
2022-11-15T02:24:58.226Z,6.89
2022-11-15T02:25:58.673Z,6.88
2022-11-15T02:26:58.942Z,6.88
2022-11-15T02:27:59.247Z,6.85
2022-11-15T02:28:59.593Z,6.81
2022-11-15T02:29:59.943Z,6.75
2022-11-15T02:31:00.300Z,6.74
2022-11-15T02:32:00.664Z,6.70
2022-11-15T02:33:01.001Z,6.67
2022-11-15T02:34:01.371Z,6.67
2022-11-15T02:35:01.698Z,6.62
2022-11-15T02:36:02.062Z,6.59
2022-11-15T02:37:02.423Z,6.57
2022-11-15T02:38:02.800Z,6.56
2022-11-15T02:39:03.121Z,6.51
2022-11-15T02:40:03.480Z,6.46
2022-11-15T02:41:03.818Z,6.46
2022-11-15T02:42:04.187Z,6.45
2022-11-15T02:43:08.350Z,6.44
2022-11-15T02:44:04.863Z,6.41
2022-11-15T02:45:05.202Z,6.41
2022-11-15T02:46:05.553Z,6.38
2022-11-15T02:47:05.908Z,6.35
2022-11-15T02:48:06.263Z,6.31
2022-11-15T02:49:06.612Z,6.31
2022-11-15T02:50:06.967Z,6.31
2022-11-15T02:51:07.309Z,6.33
2022-11-15T02:52:07.667Z,6.31
2022-11-15T02:53:08.033Z,6.28
2022-11-15T02:54:08.379Z,6.30
2022-11-15T02:55:08.725Z,6.27
2022-11-15T02:56:09.080Z,6.26
2022-11-15T02:57:09.465Z,6.27
2022-11-15T02:58:09.778Z,6.24
2022-11-15T02:59:10.127Z,6.20
2022-11-15T03:00:10.474Z,6.19
2022-11-15T03:01:10.896Z,6.17
2022-11-15T03:02:11.201Z,6.16
2022-11-15T03:03:11.504Z,6.11
2022-11-15T03:04:11.855Z,6.08
2022-11-15T03:05:12.197Z,6.09
2022-11-15T03:06:12.543Z,6.08
2022-11-15T03:07:12.950Z,6.09
2022-11-15T03:08:13.241Z,6.09
2022-11-15T03:09:13.595Z,6.07
2022-11-15T03:10:13.933Z,6.11
2022-11-15T03:11:14.268Z,6.12
2022-11-15T03:12:14.623Z,6.11
2022-11-15T03:13:14.976Z,6.16
2022-11-15T03:14:15.319Z,6.14
2022-11-15T03:15:15.679Z,6.14
2022-11-15T03:16:16.016Z,6.12
2022-11-15T03:17:16.384Z,6.12
2022-11-15T03:18:16.703Z,6.17
2022-11-15T03:19:17.043Z,6.19
2022-11-15T03:20:17.424Z,6.20
2022-11-15T03:21:17.735Z,6.17
2022-11-15T03:22:18.102Z,6.20
2022-11-15T03:23:18.471Z,6.16
2022-11-15T03:24:23.272Z,6.16
2022-11-15T03:25:19.128Z,6.20
2022-11-15T03:26:19.477Z,6.20
2022-11-15T03:27:19.851Z,6.22
2022-11-15T03:28:20.196Z,6.24
2022-11-15T03:29:20.545Z,6.22
2022-11-15T03:30:20.901Z,6.24
2022-11-15T03:31:21.244Z,6.26
2022-11-15T03:32:21.612Z,6.22
2022-11-15T03:33:21.953Z,6.22
2022-11-15T03:34:22.293Z,6.22
2022-11-15T03:35:22.612Z,6.20
2022-11-15T03:36:22.987Z,6.20
2022-11-15T03:37:23.319Z,6.19
2022-11-15T03:38:23.731Z,6.19
2022-11-15T03:39:23.991Z,6.16
2022-11-15T03:40:24.343Z,6.17
2022-11-15T03:41:24.690Z,6.11
2022-11-15T03:42:25.060Z,6.08
2022-11-15T03:43:25.395Z,6.09
2022-11-15T03:44:25.747Z,6.07
2022-11-15T03:45:26.101Z,6.05
2022-11-15T03:46:26.444Z,6.05
2022-11-15T03:47:26.821Z,6.05
2022-11-15T03:48:27.132Z,6.07
2022-11-15T03:49:27.505Z,6.05
2022-11-15T03:50:27.843Z,6.08
2022-11-15T03:51:28.197Z,6.08
2022-11-15T03:52:28.558Z,6.08
2022-11-15T03:53:29.231Z,6.12
2022-11-15T03:54:29.243Z,6.11
2022-11-15T03:55:29.594Z,6.12
2022-11-15T03:56:29.944Z,6.12
2022-11-15T03:57:30.313Z,6.14
2022-11-15T03:58:30.677Z,6.14
2022-11-15T03:59:30.999Z,6.14
2022-11-15T04:00:31.367Z,6.16
2022-11-15T04:01:31.824Z,6.14
2022-11-15T04:02:32.088Z,6.12
2022-11-15T04:03:32.731Z,6.12
2022-11-15T04:04:32.757Z,6.16
2022-11-15T04:05:33.088Z,6.19
2022-11-15T04:06:33.688Z,6.24
2022-11-15T04:07:33.862Z,6.27
2022-11-15T04:08:34.142Z,6.30
2022-11-15T04:09:34.446Z,6.31
2022-11-15T04:10:34.803Z,6.36
2022-11-15T04:11:35.157Z,6.39
2022-11-15T04:12:35.525Z,6.41
2022-11-15T04:13:35.864Z,6.42
2022-11-15T04:14:36.210Z,6.44
2022-11-15T04:15:36.565Z,6.46
2022-11-15T04:16:42.603Z,6.51
2022-11-15T04:17:37.271Z,6.54
2022-11-15T04:18:37.627Z,6.60
2022-11-15T04:19:37.994Z,6.63
2022-11-15T04:20:38.448Z,6.63
2022-11-15T04:21:38.673Z,6.67
2022-11-15T04:22:39.052Z,6.70
2022-11-15T04:23:39.514Z,6.74
2022-11-15T04:24:39.849Z,6.74
2022-11-15T04:25:40.079Z,6.77
2022-11-15T04:26:40.426Z,6.78
2022-11-15T04:27:40.797Z,6.79
2022-11-15T04:28:41.165Z,6.81
2022-11-15T04:29:41.498Z,6.84
2022-11-15T04:30:41.846Z,6.88
2022-11-15T04:31:42.189Z,6.93
2022-11-15T04:32:42.557Z,6.96
2022-11-15T04:33:42.901Z,6.97
2022-11-15T04:34:43.256Z,6.97
2022-11-15T04:35:43.597Z,6.99
2022-11-15T04:36:43.951Z,6.99
2022-11-15T04:37:49.114Z,7.02
2022-11-15T04:38:44.742Z,7.02
2022-11-15T04:39:44.984Z,7.03
2022-11-15T04:40:45.334Z,7.06
2022-11-15T04:41:45.690Z,7.07
2022-11-15T04:42:46.072Z,7.10
2022-11-15T04:43:46.416Z,7.07
2022-11-15T04:44:46.747Z,6.96
2022-11-15T04:45:47.092Z,6.92
2022-11-15T04:46:47.450Z,6.89
2022-11-15T04:47:47.807Z,6.92
2022-11-15T04:48:48.150Z,6.89
2022-11-15T04:49:48.506Z,6.92
2022-11-15T04:50:48.866Z,6.89
2022-11-15T04:51:49.208Z,6.92
2022-11-15T04:52:49.592Z,6.96
2022-11-15T04:53:49.945Z,6.97
2022-11-15T04:54:50.294Z,7.03
2022-11-15T04:55:50.679Z,7.14
2022-11-15T04:56:50.988Z,7.21
2022-11-15T04:57:51.406Z,7.24
2022-11-15T04:58:51.704Z,7.25
2022-11-15T04:59:52.048Z,7.25
2022-11-15T05:00:52.482Z,7.32
2022-11-15T05:01:52.775Z,7.39
2022-11-15T05:02:53.179Z,7.39
2022-11-15T05:03:53.486Z,7.42
2022-11-15T05:04:53.940Z,7.43
2022-11-15T05:05:54.191Z,7.45
2022-11-15T05:06:54.567Z,7.47
2022-11-15T05:07:54.896Z,7.47
2022-11-15T05:08:55.247Z,7.50
2022-11-15T05:09:55.598Z,7.51
2022-11-15T05:10:55.936Z,7.51
2022-11-15T05:11:56.287Z,7.50
2022-11-15T05:12:56.655Z,7.53
2022-11-15T05:13:56.998Z,7.51
2022-11-15T05:14:57.358Z,7.50
2022-11-15T05:15:57.710Z,7.48
2022-11-15T05:16:58.070Z,7.47
2022-11-15T05:17:58.444Z,7.43
2022-11-15T05:18:58.796Z,7.38
2022-11-15T05:19:59.154Z,7.33
2022-11-15T05:20:59.504Z,7.31
2022-11-15T05:21:59.876Z,7.24
2022-11-15T05:23:00.232Z,7.23
2022-11-15T05:24:00.587Z,7.23
2022-11-15T05:25:00.989Z,7.21
2022-11-15T05:26:06.448Z,7.23
2022-11-15T05:27:01.655Z,7.20
2022-11-15T05:28:02.017Z,7.20
2022-11-15T05:29:02.364Z,7.20
2022-11-15T05:30:02.727Z,7.18
2022-11-15T05:31:03.075Z,7.15
2022-11-15T05:32:03.426Z,7.07
2022-11-15T05:33:03.788Z,7.06
2022-11-15T05:34:04.140Z,7.18
2022-11-15T05:35:04.474Z,7.18
2022-11-15T05:36:04.804Z,7.18
2022-11-15T05:37:05.245Z,7.23
2022-11-15T05:38:05.564Z,7.23
2022-11-15T05:39:05.875Z,7.24
2022-11-15T05:40:06.233Z,7.23
2022-11-15T05:41:06.573Z,7.18
2022-11-15T05:42:06.946Z,7.17
2022-11-15T05:43:07.279Z,7.15
2022-11-15T05:44:07.740Z,7.11
2022-11-15T05:45:07.973Z,7.10
2022-11-15T05:46:08.312Z,7.06
2022-11-15T05:47:08.681Z,7.06
2022-11-15T05:48:09.048Z,7.05
2022-11-15T05:49:09.390Z,7.05
2022-11-15T05:50:09.741Z,7.05
2022-11-15T05:51:10.088Z,7.05
2022-11-15T05:52:10.434Z,7.05
2022-11-15T05:53:10.801Z,7.03
2022-11-15T05:54:11.153Z,7.03
2022-11-15T05:55:11.502Z,6.99
2022-11-15T05:56:11.873Z,6.97
2022-11-15T05:57:12.191Z,6.99
2022-11-15T05:58:12.552Z,6.99
2022-11-15T05:59:12.865Z,6.97
2022-11-15T06:00:13.236Z,6.96
2022-11-15T06:01:13.594Z,6.96
2022-11-15T06:02:13.976Z,6.95
2022-11-15T06:03:14.350Z,6.95
2022-11-15T06:04:14.653Z,6.97
2022-11-15T06:05:15.021Z,6.99
2022-11-15T06:06:16.573Z,7.00
2022-11-15T06:07:15.841Z,6.99
2022-11-15T06:08:16.033Z,6.99
2022-11-15T06:09:16.358Z,7.00
2022-11-15T06:10:16.588Z,7.02
2022-11-15T06:11:16.834Z,6.99
2022-11-15T06:12:17.281Z,6.99
2022-11-15T06:13:17.651Z,7.00
2022-11-15T06:14:17.943Z,7.00
2022-11-15T06:15:18.141Z,7.02
2022-11-15T06:16:18.562Z,7.03
2022-11-15T06:17:18.867Z,7.10
2022-11-15T06:18:19.125Z,7.07
2022-11-15T06:19:19.388Z,7.10
2022-11-15T06:20:19.679Z,7.11
2022-11-15T06:21:19.977Z,7.11
2022-11-15T06:22:20.284Z,7.13
2022-11-15T06:23:20.540Z,7.14
2022-11-15T06:24:20.824Z,7.13
2022-11-15T06:25:21.098Z,7.13
2022-11-15T06:26:21.387Z,7.14
2022-11-15T06:27:21.690Z,7.13
2022-11-15T06:28:22.024Z,7.13
2022-11-15T06:29:22.269Z,7.14
2022-11-15T06:30:22.540Z,7.15
2022-11-15T06:31:22.796Z,7.17
2022-11-15T06:32:22.964Z,7.14
2022-11-15T06:33:23.269Z,7.17
2022-11-15T06:34:23.526Z,7.17
2022-11-15T06:35:23.812Z,7.18
2022-11-15T06:36:23.976Z,7.18
2022-11-15T06:37:24.272Z,7.17
2022-11-15T06:38:24.571Z,7.17
2022-11-15T06:39:24.706Z,7.17
2022-11-15T06:40:24.880Z,7.18
2022-11-15T06:41:25.075Z,7.18
2022-11-15T06:42:25.319Z,7.20
2022-11-15T06:43:25.619Z,7.20
2022-11-15T06:44:25.901Z,7.23
2022-11-15T06:45:26.174Z,7.23
2022-11-15T06:46:26.345Z,7.23
2022-11-15T06:47:26.618Z,7.24
2022-11-15T06:48:26.807Z,7.25
2022-11-15T06:49:26.996Z,7.25
2022-11-15T06:50:27.124Z,7.29
2022-11-15T06:51:27.297Z,7.29
2022-11-15T06:52:27.616Z,7.29
2022-11-15T06:53:27.904Z,7.32
2022-11-15T06:54:28.186Z,7.32
2022-11-15T06:55:28.484Z,7.32
2022-11-15T06:56:28.641Z,7.33
2022-11-15T06:57:28.811Z,7.33
2022-11-15T06:58:29.023Z,7.35
2022-11-15T06:59:29.148Z,7.36
2022-11-15T07:00:29.428Z,7.36
2022-11-15T07:01:29.618Z,7.36
2022-11-15T07:02:29.670Z,7.39
2022-11-15T07:03:30.431Z,7.39
2022-11-15T07:04:30.134Z,7.40
2022-11-15T07:05:30.299Z,7.40
2022-11-15T07:06:30.471Z,7.42
2022-11-15T07:07:30.705Z,7.42
2022-11-15T07:08:30.835Z,7.43
2022-11-15T07:09:30.985Z,7.47
2022-11-15T07:10:31.178Z,7.45
2022-11-15T07:11:31.316Z,7.48
2022-11-15T07:12:31.502Z,7.48
2022-11-15T07:13:31.918Z,7.50
2022-11-15T07:14:31.832Z,7.51
2022-11-15T07:15:32.001Z,7.51
2022-11-15T07:16:32.185Z,7.50
2022-11-15T07:17:32.353Z,7.53
2022-11-15T07:18:32.545Z,7.51
2022-11-15T07:19:32.692Z,7.53
2022-11-15T07:20:32.861Z,7.54
2022-11-15T07:21:33.033Z,7.56
2022-11-15T07:22:33.210Z,7.56
2022-11-15T07:23:33.941Z,7.58
2022-11-15T07:24:33.558Z,7.63
2022-11-15T07:25:33.747Z,7.66
2022-11-15T07:26:33.922Z,7.69
2022-11-15T07:27:34.080Z,7.73
2022-11-15T07:28:34.274Z,7.75
2022-11-15T07:29:34.529Z,7.75
2022-11-15T07:30:34.705Z,7.79
2022-11-15T07:31:34.877Z,7.80
2022-11-15T07:32:35.053Z,7.82
2022-11-15T07:33:35.344Z,7.83
2022-11-15T07:34:35.409Z,7.85
2022-11-15T07:35:35.564Z,7.85
2022-11-15T07:36:35.735Z,7.87
2022-11-15T07:37:35.909Z,7.88
2022-11-15T07:38:42.266Z,7.87
2022-11-15T07:39:36.379Z,7.88
2022-11-15T07:40:36.671Z,7.93
2022-11-15T07:41:36.826Z,7.91
2022-11-15T07:42:37.025Z,7.94
2022-11-15T07:43:37.186Z,8.00
2022-11-15T07:44:37.344Z,8.05
2022-11-15T07:45:37.524Z,8.08
2022-11-15T07:46:37.725Z,8.10
2022-11-15T07:47:37.935Z,8.12
2022-11-15T07:48:43.874Z,8.16
2022-11-15T07:49:38.241Z,8.19
2022-11-15T07:50:38.418Z,8.24
2022-11-15T07:51:38.630Z,8.26
2022-11-15T07:52:38.778Z,8.28
2022-11-15T07:53:38.990Z,8.31
2022-11-15T07:54:39.261Z,8.36
2022-11-15T07:55:39.428Z,8.36
2022-11-15T07:56:39.610Z,8.41
2022-11-15T07:57:39.788Z,8.45
2022-11-15T07:58:39.983Z,8.46
2022-11-15T07:59:40.154Z,8.52
2022-11-15T08:00:40.441Z,8.53
2022-11-15T08:01:40.839Z,8.53
2022-11-15T08:02:41.522Z,8.55
2022-11-15T08:03:41.021Z,8.56
2022-11-15T08:04:41.156Z,8.56
2022-11-15T08:05:41.481Z,8.56
2022-11-15T08:06:41.661Z,8.56
2022-11-15T08:07:41.947Z,8.56
2022-11-15T08:08:42.133Z,8.55
2022-11-15T08:09:42.413Z,8.53
2022-11-15T08:10:42.726Z,8.52
2022-11-15T08:11:42.918Z,8.51
2022-11-15T08:12:43.138Z,8.51
2022-11-15T08:13:43.281Z,8.52
2022-11-15T08:14:43.567Z,8.56
2022-11-15T08:15:43.859Z,8.56
2022-11-15T08:16:44.161Z,8.58
2022-11-15T08:17:44.462Z,8.61
2022-11-15T08:18:44.665Z,8.66
2022-11-15T08:19:44.940Z,8.70
2022-11-15T08:20:45.235Z,8.71
2022-11-15T08:21:45.527Z,8.74
2022-11-15T08:22:45.730Z,8.73
2022-11-15T08:23:46.032Z,8.78
2022-11-15T08:24:46.224Z,8.74
2022-11-15T08:25:46.503Z,8.76
2022-11-15T08:26:46.870Z,8.76
2022-11-15T08:27:47.110Z,8.76
2022-11-15T08:28:47.300Z,8.79
2022-11-15T08:29:47.474Z,8.76
2022-11-15T08:30:47.668Z,8.79
2022-11-15T08:31:47.844Z,8.81
2022-11-15T08:32:48.029Z,8.81
2022-11-15T08:33:48.224Z,8.82
2022-11-15T08:34:48.508Z,8.81
2022-11-15T08:35:48.692Z,8.85
2022-11-15T08:36:48.988Z,8.87
2022-11-15T08:37:49.180Z,8.89
2022-11-15T08:38:49.372Z,8.89
2022-11-15T08:39:49.673Z,8.94
2022-11-15T08:40:49.844Z,9.00
2022-11-15T08:41:50.126Z,9.00
2022-11-15T08:42:50.308Z,9.04
2022-11-15T08:43:50.530Z,9.08
2022-11-15T08:44:50.673Z,9.13
2022-11-15T08:45:50.972Z,9.19
2022-11-15T08:46:51.299Z,9.21
2022-11-15T08:47:54.444Z,9.25
2022-11-15T08:48:51.772Z,9.29
2022-11-15T08:49:52.046Z,9.29
2022-11-15T08:50:52.244Z,9.34
2022-11-15T08:51:52.528Z,9.37
2022-11-15T08:52:52.730Z,9.41
2022-11-15T08:53:52.915Z,9.44
2022-11-15T08:54:53.205Z,9.47
2022-11-15T08:55:53.379Z,9.47
2022-11-15T08:56:53.579Z,9.51
2022-11-15T08:57:53.762Z,9.56
2022-11-15T08:58:53.956Z,9.59
2022-11-15T08:59:54.242Z,9.64
2022-11-15T09:00:54.441Z,9.66
2022-11-15T09:01:54.831Z,9.72
2022-11-15T09:02:54.907Z,9.74
2022-11-15T09:03:55.129Z,9.80
2022-11-15T09:04:55.288Z,9.82
2022-11-15T09:05:55.571Z,9.84
2022-11-15T09:06:55.830Z,9.87
2022-11-15T09:07:55.948Z,9.92
2022-11-15T09:08:56.450Z,9.94
2022-11-15T09:09:56.542Z,9.99
2022-11-15T09:10:56.722Z,9.99
2022-11-15T09:12:01.322Z,10.01
2022-11-15T09:12:57.099Z,10.04
2022-11-15T09:13:57.275Z,10.09
2022-11-15T09:14:57.442Z,10.13
2022-11-15T09:15:57.625Z,10.17
2022-11-15T09:16:57.829Z,10.17
2022-11-15T09:17:57.990Z,10.19
2022-11-15T09:18:58.204Z,10.22
2022-11-15T09:19:58.365Z,10.25
2022-11-15T09:20:58.548Z,10.28
2022-11-15T09:21:58.754Z,10.31
2022-11-15T09:22:58.947Z,10.35
2022-11-15T09:23:59.125Z,10.42
2022-11-15T09:24:59.289Z,10.49
2022-11-15T09:25:59.450Z,10.56
2022-11-15T09:26:59.644Z,10.61
2022-11-15T09:27:59.822Z,10.68
2022-11-15T09:29:00.022Z,10.75
2022-11-15T09:30:00.160Z,10.82
2022-11-15T09:31:00.369Z,10.87
2022-11-15T09:32:00.539Z,10.93
2022-11-15T09:33:00.740Z,11.00
2022-11-15T09:34:00.959Z,11.04
2022-11-15T09:35:01.098Z,11.08
2022-11-15T09:36:01.273Z,11.12
2022-11-15T09:37:01.466Z,11.12
2022-11-15T09:38:01.639Z,11.10
2022-11-15T09:39:01.827Z,11.08
2022-11-15T09:40:02.008Z,11.11
2022-11-15T09:41:02.176Z,11.14
2022-11-15T09:42:02.369Z,11.15
2022-11-15T09:43:02.530Z,11.18
2022-11-15T09:44:02.749Z,11.22
2022-11-15T09:45:02.924Z,11.26
2022-11-15T09:46:03.088Z,11.26
2022-11-15T09:47:03.260Z,11.29
2022-11-15T09:48:03.433Z,11.30
2022-11-15T09:49:03.609Z,11.35
2022-11-15T09:50:03.776Z,11.37
2022-11-15T09:51:03.936Z,11.40
2022-11-15T09:52:04.137Z,11.41
2022-11-15T09:53:04.303Z,11.45
2022-11-15T09:55:04.681Z,11.50
2022-11-15T09:56:04.850Z,11.51
2022-11-15T09:57:05.012Z,11.52
2022-11-15T09:58:05.216Z,11.54
2022-11-15T09:59:05.409Z,11.57
2022-11-15T10:00:38.688Z,11.55
2022-11-15T10:01:05.758Z,11.59
2022-11-15T10:02:05.906Z,11.60
2022-11-15T10:03:06.067Z,11.65
2022-11-15T10:04:10.662Z,11.66
2022-11-15T10:05:06.441Z,11.66
2022-11-15T10:06:06.626Z,11.65
2022-11-15T10:07:06.864Z,11.65
2022-11-15T10:08:06.972Z,11.69
2022-11-15T10:09:07.190Z,11.73
2022-11-15T10:10:07.368Z,11.78
2022-11-15T10:11:36.604Z,11.81
2022-11-15T10:12:07.737Z,11.87
2022-11-15T10:13:07.903Z,11.94
2022-11-15T10:14:08.134Z,12.00
2022-11-15T10:15:08.315Z,12.03
2022-11-15T10:16:08.516Z,12.07
2022-11-15T10:17:08.678Z,12.09
2022-11-15T10:18:08.882Z,12.12
2022-11-15T10:19:09.071Z,12.13
2022-11-15T10:20:09.226Z,12.18
2022-11-15T10:21:09.383Z,12.20
2022-11-15T10:22:09.583Z,12.28
2022-11-15T10:23:09.744Z,12.28
2022-11-15T10:24:09.966Z,12.31
2022-11-15T10:25:10.129Z,12.35
2022-11-15T10:26:10.296Z,12.37
2022-11-15T10:27:10.462Z,12.40
2022-11-15T10:28:10.660Z,12.45
2022-11-15T10:29:10.859Z,12.49
2022-11-15T10:30:11.027Z,12.49
2022-11-15T10:31:14.407Z,12.54
2022-11-15T10:32:11.391Z,12.57
2022-11-15T10:33:11.556Z,12.60
2022-11-15T10:34:11.765Z,12.61
2022-11-15T10:35:11.921Z,12.67
2022-11-15T10:36:12.109Z,12.68
2022-11-15T10:37:12.285Z,12.70
2022-11-15T10:38:12.481Z,12.73
2022-11-15T10:39:12.651Z,12.76
2022-11-15T10:40:12.805Z,12.78
2022-11-15T10:41:13.003Z,12.79
2022-11-15T10:42:17.668Z,12.78
2022-11-15T10:43:13.363Z,12.80
2022-11-15T10:44:13.556Z,12.82
2022-11-15T10:45:13.725Z,12.85
2022-11-15T10:46:44.537Z,12.85
2022-11-15T10:47:14.106Z,12.86
2022-11-15T10:48:14.278Z,12.87
2022-11-15T10:49:14.466Z,12.86
2022-11-15T10:50:14.635Z,12.86
2022-11-15T10:51:14.831Z,12.85
2022-11-15T10:52:15.032Z,12.87
2022-11-15T10:53:15.226Z,12.86
2022-11-15T10:54:19.964Z,12.82
2022-11-15T10:55:15.617Z,12.79
2022-11-15T10:56:15.791Z,12.78
2022-11-15T10:57:16.012Z,12.73
2022-11-15T10:58:16.179Z,12.72
2022-11-15T10:59:16.360Z,12.73
2022-11-15T11:00:16.615Z,12.67
2022-11-15T11:01:16.760Z,12.57
2022-11-15T11:02:16.896Z,12.46
2022-11-15T11:03:17.051Z,12.39
2022-11-15T11:04:17.298Z,12.37
2022-11-15T11:05:17.432Z,12.35
2022-11-15T11:06:17.594Z,12.31
2022-11-15T11:07:17.855Z,12.32
2022-11-15T11:08:17.976Z,12.32
2022-11-15T11:09:18.149Z,12.35
2022-11-15T11:10:49.261Z,12.39
2022-11-15T11:11:18.520Z,12.36
2022-11-15T11:12:18.692Z,12.37
2022-11-15T11:13:18.842Z,12.39
2022-11-15T11:14:19.058Z,12.46
2022-11-15T11:15:19.228Z,12.49
2022-11-15T11:16:19.459Z,12.46
2022-11-15T11:17:19.609Z,12.42
2022-11-15T11:18:19.805Z,12.42
2022-11-15T11:19:20.032Z,12.43
2022-11-15T11:20:20.184Z,12.46
2022-11-15T11:21:20.385Z,12.47
2022-11-15T11:22:20.586Z,12.47
2022-11-15T11:23:20.739Z,12.49
2022-11-15T11:24:20.949Z,12.50
2022-11-15T11:25:21.114Z,12.53
2022-11-15T11:26:21.317Z,12.49
2022-11-15T11:27:21.493Z,12.43
2022-11-15T11:28:21.712Z,12.18
2022-11-15T11:29:21.889Z,11.95
2022-11-15T11:30:22.063Z,11.77
2022-11-15T11:31:22.226Z,11.70
2022-11-15T11:32:22.424Z,11.72
2022-11-15T11:33:22.622Z,11.70
2022-11-15T11:34:22.803Z,11.68
2022-11-15T11:35:22.966Z,11.66
2022-11-15T11:36:23.135Z,11.72
2022-11-15T11:37:23.298Z,11.69
2022-11-15T11:38:23.489Z,11.63
2022-11-15T11:39:23.660Z,11.69
2022-11-15T11:40:23.827Z,11.75
2022-11-15T11:41:24.024Z,11.83
2022-11-15T11:42:24.236Z,11.83
2022-11-15T11:43:24.399Z,11.88
2022-11-15T11:44:24.586Z,12.00
2022-11-15T11:45:24.767Z,12.27
2022-11-15T11:46:24.965Z,12.43
2022-11-15T11:47:25.138Z,12.49
2022-11-15T11:48:25.317Z,12.58
2022-11-15T11:49:25.502Z,12.55
2022-11-15T11:50:25.663Z,12.60
2022-11-15T11:51:25.861Z,12.62
2022-11-15T11:52:26.045Z,12.67
2022-11-15T11:53:26.225Z,12.86
2022-11-15T11:54:26.446Z,12.95
2022-11-15T11:55:26.652Z,12.87
2022-11-15T11:56:26.819Z,12.87
2022-11-15T11:57:26.989Z,12.94
2022-11-15T11:58:27.190Z,12.90
2022-11-15T11:59:27.401Z,12.87
2022-11-15T12:00:27.568Z,12.90
2022-11-15T12:01:27.770Z,13.08
2022-11-15T12:02:28.088Z,13.19
2022-11-15T12:03:28.134Z,13.16
2022-11-15T12:04:28.377Z,13.22
2022-11-15T12:05:28.511Z,13.23
2022-11-15T12:06:28.693Z,13.37
2022-11-15T12:07:28.976Z,13.46
2022-11-15T12:08:29.503Z,13.44
2022-11-15T12:09:29.325Z,13.42
2022-11-15T12:10:30.643Z,13.53
2022-11-15T12:11:29.666Z,13.62
2022-11-15T12:12:29.867Z,13.74
2022-11-15T12:13:30.027Z,14.04
2022-11-15T12:14:30.238Z,14.28
2022-11-15T12:15:30.411Z,14.29
2022-11-15T12:16:30.552Z,14.32
2022-11-15T12:17:30.740Z,14.36
2022-11-15T12:18:31.224Z,14.29
2022-11-15T12:19:31.140Z,14.44
2022-11-15T12:20:31.314Z,14.58
2022-11-15T12:21:31.488Z,14.55
2022-11-15T12:22:31.705Z,14.51
2022-11-15T12:23:31.911Z,14.48
2022-11-15T12:24:32.104Z,14.40
2022-11-15T12:25:32.257Z,14.41
2022-11-15T12:26:32.451Z,14.47
2022-11-15T12:27:32.641Z,14.60
2022-11-15T12:28:33.168Z,14.58
2022-11-15T12:29:33.046Z,14.50
2022-11-15T12:30:33.205Z,14.51
2022-11-15T12:31:33.406Z,14.53
2022-11-15T12:32:33.599Z,14.62
2022-11-15T12:33:33.786Z,14.68
2022-11-15T12:34:33.988Z,14.62
2022-11-15T12:35:34.145Z,14.58
2022-11-15T12:36:34.343Z,14.51
2022-11-15T12:37:34.535Z,14.37
2022-11-15T12:38:35.044Z,14.36
2022-11-15T12:39:34.932Z,14.44
2022-11-15T12:40:35.154Z,14.45
2022-11-15T12:41:35.311Z,14.48
2022-11-15T12:42:35.495Z,14.44
2022-11-15T12:43:35.693Z,14.35
2022-11-15T12:44:35.910Z,14.36
2022-11-15T12:45:36.063Z,14.41
2022-11-15T12:46:36.262Z,14.44
2022-11-15T12:47:36.460Z,14.50
2022-11-15T12:48:36.650Z,14.47
2022-11-15T12:49:36.866Z,14.53
2022-11-15T12:50:37.113Z,14.44
2022-11-15T12:51:37.202Z,14.53
2022-11-15T12:52:37.618Z,14.55
2022-11-15T12:53:37.579Z,14.59
2022-11-15T12:54:37.814Z,14.63
2022-11-15T12:55:37.950Z,14.70
2022-11-15T12:56:38.149Z,14.66
2022-11-15T12:57:38.342Z,14.70
2022-11-15T12:58:38.546Z,14.69
2022-11-15T12:59:38.740Z,14.51
2022-11-15T13:00:38.896Z,14.51
2022-11-15T13:01:39.212Z,14.53
2022-11-15T13:02:39.298Z,14.45
2022-11-15T13:03:39.484Z,14.62
2022-11-15T13:04:39.755Z,14.58
2022-11-15T13:05:39.847Z,14.54
2022-11-15T13:06:40.072Z,14.62
2022-11-15T13:07:40.261Z,14.63
2022-11-15T13:08:40.417Z,14.63
2022-11-15T13:09:40.593Z,14.58
2022-11-15T13:10:40.749Z,14.59
2022-11-15T13:11:40.929Z,14.44
2022-11-15T13:12:41.125Z,14.47
2022-11-15T13:13:41.318Z,14.43
2022-11-15T13:14:41.528Z,14.26